Time;durP1;ratioP1;P1;durP2;ratioP2;P2;SDS_P1;SDS_P2;PMS_P1;PMS_P2;Temp;Humidity;BMP_temperature;BMP_pressure;BME280_temperature;BME280_humidity;BME280_pressure;Samples;Min_cycle;Max_cycle;Signal;HPM_P1;HPM_P2
2022/10/27 00:02:21;;;;;;;20.33;6.82;;;;;;;18.40;69.33;99295.50;5052618;28;20027;-46
2022/10/27 00:04:47;;;;;;;23.13;6.43;;;;;;;18.46;68.88;99297.19;5053797;28;20025;-46
2022/10/27 00:07:12;;;;;;;19.10;5.68;;;;;;;18.41;69.47;99301.59;5053724;28;20039;-46
2022/10/27 00:09:38;;;;;;;19.80;6.78;;;;;;;18.37;69.47;99293.28;5052417;28;20021;-46
2022/10/27 00:12:04;;;;;;;25.08;6.75;;;;;;;18.33;69.41;99297.47;5053673;28;20017;-46
2022/10/27 00:14:30;;;;;;;15.80;5.78;;;;;;;18.36;69.71;99302.31;5053380;28;20079;-46
2022/10/27 00:16:56;;;;;;;17.00;5.95;;;;;;;18.39;69.63;99296.56;5085700;28;20087;-46
2022/10/27 00:19:23;;;;;;;19.35;6.38;;;;;;;18.39;70.04;99298.38;5052189;28;20021;-45
2022/10/27 00:21:50;;;;;;;18.20;6.05;;;;;;;18.41;70.08;99290.97;5052122;28;20036;-46
2022/10/27 00:24:20;;;;;;;19.13;6.70;;;;;;;18.46;70.13;99299.88;5053384;28;20027;-46
2022/10/27 00:26:46;;;;;;;21.73;5.72;;;;;;;18.49;70.09;99303.88;5085675;28;20568;-46
2022/10/27 00:29:11;;;;;;;16.73;5.82;;;;;;;18.49;70.43;99299.41;5053266;28;20033;-46
2022/10/27 00:31:37;;;;;;;20.38;6.07;;;;;;;18.61;70.20;99304.66;5053291;28;20103;-46
2022/10/27 00:34:03;;;;;;;18.98;6.45;;;;;;;18.81;69.52;99309.56;5053330;28;20491;-46
2022/10/27 00:36:28;;;;;;;26.98;6.75;;;;;;;18.83;68.83;99304.81;5085311;28;20056;-46
2022/10/27 00:38:56;;;;;;;17.50;6.13;;;;;;;18.69;68.93;99314.94;5053136;28;20491;-46
2022/10/27 00:41:30;;;;;;;23.08;6.45;;;;;;;18.52;69.35;99311.41;5053032;28;20032;-46
2022/10/27 00:43:58;;;;;;;20.00;6.20;;;;;;;18.45;69.81;99314.22;5053149;28;20025;-46
2022/10/27 00:46:39;;;;;;;20.50;6.18;;;;;;;18.49;70.25;99323.31;5051670;28;20059;-46
2022/10/27 00:49:17;;;;;;;19.52;5.65;;;;;;;18.55;69.68;99310.91;5053024;28;20036;-46
2022/10/27 00:52:06;;;;;;;18.95;7.45;;;;;;;18.50;69.75;99306.31;5052873;28;20021;-46
2022/10/27 00:54:38;;;;;;;25.88;5.70;;;;;;;18.51;69.60;99302.63;5052896;28;20032;-46
2022/10/27 00:57:06;;;;;;;17.70;6.20;;;;;;;18.48;69.77;99312.91;5052722;28;20458;-46
2022/10/27 00:59:32;;;;;;;30.08;7.43;;;;;;;18.48;69.74;99308.41;5052726;28;20032;-46
2022/10/27 01:01:58;;;;;;;25.80;11.73;;;;;;;18.44;70.37;99311.78;5052707;28;20021;-46
2022/10/27 01:05:01;;;;;;;24.48;13.07;;;;;;;18.43;69.85;99316.28;5052659;28;20032;-46
2022/10/27 01:07:28;;;;;;;19.48;11.82;;;;;;;18.38;70.25;99313.53;5051279;28;20028;-46
2022/10/27 01:09:53;;;;;;;16.55;6.80;;;;;;;18.29;69.98;99318.41;5052583;28;20025;-46
2022/10/27 01:12:19;;;;;;;20.00;7.53;;;;;;;18.19;70.61;99318.22;5050589;28;20403;-46
2022/10/27 01:14:45;;;;;;;20.70;6.32;;;;;;;18.15;70.88;99315.22;5052242;28;20045;-46
2022/10/27 01:17:24;;;;;;;15.60;6.63;;;;;;;18.11;71.04;99319.38;5051086;28;20024;-45
2022/10/27 01:20:25;;;;;;;16.52;6.15;;;;;;;18.04;71.39;99326.66;5051237;28;20028;-46
2022/10/27 01:23:18;;;;;;;18.63;6.53;;;;;;;18.01;71.70;99313.84;5084556;28;20048;-46
2022/10/27 01:26:11;;;;;;;22.15;7.05;;;;;;;17.91;71.83;99313.63;5052219;28;20107;-46
2022/10/27 01:28:55;;;;;;;21.48;6.35;;;;;;;17.86;72.09;99316.16;5052284;28;20028;-46
2022/10/27 01:31:31;;;;;;;21.23;5.78;;;;;;;17.82;72.60;99310.47;5052203;28;20029;-46
2022/10/27 01:34:11;;;;;;;25.60;6.70;;;;;;;17.87;72.56;99312.47;5052129;28;20021;-46
2022/10/27 01:37:09;;;;;;;20.00;6.20;;;;;;;17.86;72.57;99316.16;5052017;28;20033;-46
2022/10/27 01:39:41;;;;;;;29.67;7.80;;;;;;;17.84;72.75;99327.00;5050364;28;20033;-46
2022/10/27 01:42:26;;;;;;;20.08;6.30;;;;;;;18.06;73.28;99329.06;5050906;28;20033;-46
2022/10/27 01:44:55;;;;;;;16.90;6.00;;;;;;;18.40;72.42;99321.28;5052002;28;20039;-46
2022/10/27 01:47:23;;;;;;;26.50;6.68;;;;;;;18.78;71.43;99325.97;5051905;28;20252;-46
2022/10/27 01:49:53;;;;;;;22.10;6.80;;;;;;;19.23;70.60;99327.84;5051892;28;20029;-46
2022/10/27 01:52:39;;;;;;;16.30;6.63;;;;;;;19.38;68.55;99337.13;5052123;28;20036;-46
2022/10/27 01:55:08;;;;;;;30.40;7.15;;;;;;;19.14;68.64;99331.97;5050495;28;20384;-46
2022/10/27 01:57:51;;;;;;;17.27;6.70;;;;;;;18.86;68.83;99333.59;5051709;28;20025;-46
2022/10/27 02:00:17;;;;;;;16.40;6.15;;;;;;;18.56;69.50;99326.63;5084041;28;20388;-46
2022/10/27 02:02:46;;;;;;;17.63;6.03;;;;;;;18.38;70.14;99333.97;5051669;28;20032;-46
2022/10/27 02:05:18;;;;;;;13.63;6.25;;;;;;;18.24;70.39;99325.47;5033786;28;20025;-46
2022/10/27 02:07:58;;;;;;;14.65;6.30;;;;;;;18.14;70.87;99332.16;5051737;28;20024;-46
2022/10/27 02:10:34;;;;;;;26.92;7.55;;;;;;;18.08;71.12;99327.78;5051700;28;20445;-46
2022/10/27 02:13:02;;;;;;;24.70;6.45;;;;;;;18.16;70.80;99332.75;5083985;28;20037;-46
2022/10/27 02:15:50;;;;;;;17.88;5.78;;;;;;;18.24;70.15;99320.94;5051323;28;20045;-46
2022/10/27 02:18:19;;;;;;;19.83;6.22;;;;;;;18.24;70.24;99333.44;5051626;28;20040;-46
2022/10/27 02:20:49;;;;;;;19.80;7.00;;;;;;;18.14;70.22;99326.06;5083823;28;20017;-46
2022/10/27 02:23:17;;;;;;;17.45;6.93;;;;;;;18.04;70.80;99329.31;5052527;28;20033;-46
2022/10/27 02:26:01;;;;;;;22.67;6.43;;;;;;;17.93;71.18;99333.59;5055631;28;20540;-46
2022/10/27 02:28:51;;;;;;;20.67;6.63;;;;;;;17.81;71.29;99331.94;5054321;28;20029;-46
2022/10/27 02:31:20;;;;;;;18.33;6.50;;;;;;;17.71;71.30;99329.88;5055548;28;20483;-46
2022/10/27 02:33:47;;;;;;;12.75;6.22;;;;;;;17.63;71.83;99327.56;5055525;28;20698;-46
2022/10/27 02:36:13;;;;;;;19.70;6.28;;;;;;;17.55;72.03;99326.06;5055369;28;20022;-45
2022/10/27 02:38:38;;;;;;;20.95;6.53;;;;;;;17.53;72.04;99325.50;5055438;28;20399;-46
2022/10/27 02:41:04;;;;;;;22.15;6.70;;;;;;;17.57;71.85;99324.00;5054093;28;20024;-46
2022/10/27 02:43:30;;;;;;;17.02;6.93;;;;;;;17.58;71.75;99329.06;5055303;28;20047;-46
2022/10/27 02:45:55;;;;;;;21.83;7.10;;;;;;;17.65;71.58;99328.16;5055273;28;20021;-46
2022/10/27 02:48:21;;;;;;;20.90;6.65;;;;;;;17.70;71.49;99328.25;5087548;28;20028;-46
2022/10/27 02:50:46;;;;;;;19.58;6.65;;;;;;;17.73;71.60;99328.59;5055188;28;20522;-46
2022/10/27 02:53:15;;;;;;;21.27;6.90;;;;;;;17.73;71.18;99322.50;5055189;28;20032;-46
2022/10/27 02:55:42;;;;;;;25.05;7.80;;;;;;;17.63;71.65;99312.44;5055016;28;20025;-46
2022/10/27 02:58:07;;;;;;;19.98;7.28;;;;;;;17.54;71.63;99319.13;5053884;28;20021;-45
2022/10/27 03:00:33;;;;;;;21.02;6.82;;;;;;;17.44;72.14;99311.72;5053700;28;20025;-45
2022/10/27 03:03:01;;;;;;;17.73;6.15;;;;;;;17.42;72.51;99319.13;5053782;28;20458;-45
2022/10/27 03:05:27;;;;;;;17.50;6.13;;;;;;;17.42;72.29;99321.78;5053991;28;20012;-45
2022/10/27 03:07:53;;;;;;;19.25;7.55;;;;;;;17.37;72.54;99311.84;5054946;28;20428;-45
2022/10/27 03:10:18;;;;;;;15.55;6.93;;;;;;;17.33;72.62;99310.69;5054815;28;20033;-46
2022/10/27 03:12:47;;;;;;;23.45;7.78;;;;;;;17.23;72.86;99310.47;5087011;28;20028;-46
2022/10/27 03:15:14;;;;;;;17.77;6.47;;;;;;;17.19;73.14;99303.19;5054323;28;20063;-45
2022/10/27 03:17:47;;;;;;;23.05;7.05;;;;;;;17.18;73.15;99305.00;5054701;28;20031;-45
2022/10/27 03:20:14;;;;;;;25.42;7.63;;;;;;;17.10;73.60;99297.38;5054915;28;20098;-45
2022/10/27 03:22:40;;;;;;;25.38;6.72;;;;;;;17.11;74.14;99304.31;5054608;28;20023;-46
2022/10/27 03:25:07;;;;;;;19.45;6.07;;;;;;;17.22;73.60;99303.53;5054525;28;20112;-46
2022/10/27 03:27:33;;;;;;;18.58;5.53;;;;;;;17.24;73.25;99308.59;5054494;28;20410;-46
2022/10/27 03:29:59;;;;;;;23.48;7.13;;;;;;;17.20;73.65;99302.94;5054487;28;20053;-46
2022/10/27 03:32:24;;;;;;;18.38;6.40;;;;;;;17.22;73.22;99314.13;5069708;28;20032;-46
2022/10/27 03:34:50;;;;;;;23.20;6.05;;;;;;;17.37;73.25;99322.47;5054124;28;20086;-46
2022/10/27 03:37:16;;;;;;;22.02;6.40;;;;;;;17.32;72.84;99326.84;5054230;28;20024;-46
2022/10/27 03:39:41;;;;;;;18.63;6.57;;;;;;;17.27;72.53;99330.19;5052981;28;20508;-46
2022/10/27 03:42:07;;;;;;;18.48;7.10;;;;;;;17.24;72.96;99327.97;5052917;28;20025;-46
2022/10/27 03:44:33;;;;;;;18.48;6.40;;;;;;;17.19;72.83;99346.44;5069704;28;20406;-45
2022/10/27 03:46:58;;;;;;;22.92;7.50;;;;;;;17.15;72.94;99342.63;5054075;28;20399;-45
2022/10/27 03:49:24;;;;;;;17.52;6.72;;;;;;;17.11;73.17;99347.56;5054246;28;20050;-46
2022/10/27 03:51:49;;;;;;;19.08;7.13;;;;;;;17.29;73.48;99351.97;5053992;28;20025;-46
2022/10/27 03:54:15;;;;;;;17.58;6.38;;;;;;;17.38;72.66;99347.16;5054030;28;20021;-46
2022/10/27 03:56:41;;;;;;;21.98;7.03;;;;;;;17.35;72.45;99350.28;5053918;28;20450;-46
2022/10/27 03:59:08;;;;;;;24.35;9.13;;;;;;;17.32;72.56;99346.22;5053900;28;20032;-46
2022/10/27 04:01:34;;;;;;;16.52;7.90;;;;;;;17.29;72.67;99346.69;5052491;28;20017;-46
2022/10/27 04:04:00;;;;;;;23.27;6.95;;;;;;;17.24;72.60;99351.03;5053891;28;20518;-46
2022/10/27 04:06:25;;;;;;;17.27;6.75;;;;;;;17.18;72.75;99347.44;5053768;28;20029;-46
2022/10/27 04:08:51;;;;;;;20.92;6.70;;;;;;;17.13;72.51;99345.50;5086066;28;20017;-46
2022/10/27 04:11:16;;;;;;;18.67;6.78;;;;;;;17.13;72.44;99353.44;5052395;28;20029;-46
2022/10/27 04:13:42;;;;;;;13.60;6.53;;;;;;;17.17;72.41;99354.59;5035517;28;20037;-46
2022/10/27 04:16:08;;;;;;;28.20;6.75;;;;;;;17.19;71.91;99346.44;5053593;28;20060;-45
2022/10/27 04:18:34;;;;;;;25.33;6.63;;;;;;;17.17;71.95;99337.88;5052281;28;20025;-45
2022/10/27 04:21:02;;;;;;;176.32;17.83;;;;;;;17.14;72.42;99336.50;5053455;28;20021;-46
2022/10/27 04:23:28;;;;;;;78.63;10.48;;;;;;;17.25;71.89;99340.22;5052096;28;20048;-45
2022/10/27 04:25:55;;;;;;;62.15;9.48;;;;;;;17.33;71.78;99345.19;5052141;28;20110;-46
2022/10/27 04:28:21;;;;;;;26.73;6.30;;;;;;;17.54;71.16;99351.78;5052226;28;20031;-46
2022/10/27 04:30:46;;;;;;;28.13;6.47;;;;;;;17.69;70.41;99361.16;5053571;28;20474;-45
2022/10/27 04:33:12;;;;;;;17.95;6.30;;;;;;;17.51;70.37;99362.88;5053310;28;20487;-46
2022/10/27 04:35:38;;;;;;;20.25;7.30;;;;;;;17.41;71.04;99359.19;5053146;28;20490;-45
2022/10/27 04:38:04;;;;;;;23.38;9.10;;;;;;;17.45;71.29;99355.81;5085453;28;20048;-46
2022/10/27 04:40:29;;;;;;;19.50;5.93;;;;;;;17.39;70.76;99359.41;5053146;28;20508;-45
2022/10/27 04:42:55;;;;;;;23.17;6.78;;;;;;;17.20;71.13;99355.19;5035221;28;20048;-45
2022/10/27 04:45:21;;;;;;;18.20;5.90;;;;;;;17.09;72.30;99359.44;5084789;28;20025;-45
2022/10/27 04:47:47;;;;;;;20.58;7.15;;;;;;;17.03;72.31;99361.13;5051331;28;20029;-45
2022/10/27 04:50:14;;;;;;;13.98;6.15;;;;;;;16.92;72.66;99360.06;5035084;28;20078;-45
2022/10/27 04:52:40;;;;;;;25.15;6.95;;;;;;;16.92;72.93;99360.06;5085203;28;20522;-45
2022/10/27 04:55:06;;;;;;;17.58;6.32;;;;;;;16.93;72.85;99366.19;5051616;28;20067;-45
2022/10/27 04:57:32;;;;;;;17.00;5.75;;;;;;;16.93;72.78;99361.69;5052843;28;20040;-45
2022/10/27 04:59:58;;;;;;;23.92;6.93;;;;;;;16.97;73.10;99354.91;5051519;28;20033;-45
2022/10/27 05:02:23;;;;;;;18.33;7.85;;;;;;;17.08;72.87;99365.75;5052721;28;20025;-45
2022/10/27 05:04:49;;;;;;;15.95;6.75;;;;;;;17.08;72.38;99369.25;5051349;28;20495;-45
2022/10/27 05:07:14;;;;;;;14.43;5.93;;;;;;;17.02;72.83;99366.66;5052608;28;20108;-46
2022/10/27 05:09:40;;;;;;;17.73;6.25;;;;;;;17.20;72.97;99360.50;5051348;28;20056;-45
2022/10/27 05:12:06;;;;;;;19.40;6.28;;;;;;;17.31;72.47;99360.53;5052503;28;20033;-46
2022/10/27 05:14:31;;;;;;;21.17;6.63;;;;;;;17.22;71.92;99361.88;5084509;28;20418;-46
2022/10/27 05:16:57;;;;;;;18.23;7.63;;;;;;;17.11;72.65;99370.63;5052365;28;20025;-45
2022/10/27 05:19:22;;;;;;;27.30;7.25;;;;;;;17.03;73.04;99371.75;5052363;28;20051;-45
2022/10/27 05:21:48;;;;;;;16.30;6.78;;;;;;;17.01;73.41;99386.28;5052387;28;20403;-45
2022/10/27 05:24:14;;;;;;;18.58;6.70;;;;;;;17.02;73.54;99380.72;5052559;28;20411;-46
2022/10/27 05:26:40;;;;;;;19.55;6.97;;;;;;;17.00;73.59;99382.00;5050970;28;20181;-46
2022/10/27 05:29:06;;;;;;;22.70;7.25;;;;;;;16.94;73.35;99376.56;5050919;28;20048;-45
2022/10/27 05:31:31;;;;;;;19.63;6.70;;;;;;;16.85;73.56;99379.75;5052196;28;20021;-46
2022/10/27 05:33:57;;;;;;;20.58;7.45;;;;;;;16.83;73.96;99382.63;5052181;28;20051;-46
2022/10/27 05:36:22;;;;;;;20.27;7.50;;;;;;;16.90;74.03;99380.72;5050812;28;20057;-45
2022/10/27 05:38:48;;;;;;;26.58;8.43;;;;;;;16.82;74.06;99380.19;5084334;28;20033;-46
2022/10/27 05:41:14;;;;;;;12.52;6.43;;;;;;;16.73;74.35;99385.75;5050669;28;20116;-46
2022/10/27 05:43:40;;;;;;;15.18;7.38;;;;;;;16.66;74.33;99379.75;5052045;28;20044;-45
2022/10/27 05:46:07;;;;;;;18.08;7.25;;;;;;;16.75;74.90;99390.84;5052122;28;20459;-46
2022/10/27 05:48:33;;;;;;;25.15;7.45;;;;;;;16.81;74.51;99381.22;5034048;28;20043;-45
2022/10/27 05:50:58;;;;;;;30.88;16.98;;;;;;;16.94;74.65;99370.44;5033979;28;20113;-46
2022/10/27 05:53:24;;;;;;;26.17;10.50;;;;;;;17.02;74.09;99375.41;5050501;28;20029;-46
2022/10/27 05:55:54;;;;;;;31.35;12.20;;;;;;;16.95;73.75;99372.88;5051730;28;20032;-46
2022/10/27 05:58:20;;;;;;;32.53;8.63;;;;;;;16.96;74.09;99371.84;5051502;28;20025;-46
2022/10/27 06:00:46;;;;;;;19.15;6.93;;;;;;;17.04;73.62;99378.66;5051814;28;20031;-46
2022/10/27 06:03:20;;;;;;;28.70;7.47;;;;;;;17.06;73.76;99383.75;5083884;28;20020;-46
2022/10/27 06:05:46;;;;;;;18.00;7.40;;;;;;;17.12;73.24;99390.78;5083959;28;20021;-46
2022/10/27 06:08:11;;;;;;;27.45;7.13;;;;;;;17.10;73.03;99395.53;5050413;28;20036;-46
2022/10/27 06:10:37;;;;;;;20.23;6.22;;;;;;;17.06;72.80;99389.03;5050336;28;20441;-46
2022/10/27 06:13:05;;;;;;;20.13;6.97;;;;;;;17.16;72.57;99391.97;5051664;28;20060;-46
2022/10/27 06:15:32;;;;;;;20.55;6.95;;;;;;;17.33;73.17;99397.44;5050034;28;20472;-46
2022/10/27 06:17:58;;;;;;;25.58;7.25;;;;;;;17.62;72.39;99393.09;5051606;28;20483;-45
2022/10/27 06:20:24;;;;;;;125.35;13.13;;;;;;;17.70;71.87;99397.28;5051556;28;20086;-46
2022/10/27 06:22:50;;;;;;;26.45;7.38;;;;;;;17.84;70.71;99406.66;5051615;28;20021;-46
2022/10/27 06:25:16;;;;;;;33.95;7.75;;;;;;;17.75;70.50;99408.84;5050182;28;20078;-45
2022/10/27 06:27:41;;;;;;;22.33;6.65;;;;;;;17.60;70.19;99413.75;5050308;28;20025;-46
2022/10/27 06:30:07;;;;;;;25.65;6.15;;;;;;;17.69;70.55;99414.25;5051391;28;20452;-46
2022/10/27 06:32:40;;;;;;;24.98;6.55;;;;;;;17.72;69.31;99419.09;5051479;28;20395;-46
2022/10/27 06:35:06;;;;;;;22.00;6.38;;;;;;;17.70;69.11;99424.63;5050113;28;20068;-46
2022/10/27 06:37:32;;;;;;;20.50;6.03;;;;;;;17.72;69.20;99416.44;5051379;28;20135;-46
2022/10/27 06:39:58;;;;;;;20.23;5.88;;;;;;;17.75;69.26;99423.97;5051618;28;20033;-46
2022/10/27 06:42:24;;;;;;;20.10;7.07;;;;;;;17.81;68.69;99425.69;5083614;28;20020;-46
2022/10/27 06:44:50;;;;;;;23.75;6.97;;;;;;;17.89;68.12;99420.06;5050033;28;20036;-46
2022/10/27 06:47:16;;;;;;;19.23;6.15;;;;;;;17.94;67.73;99427.34;5051296;28;20107;-46
2022/10/27 06:49:42;;;;;;;16.70;6.05;;;;;;;18.12;67.64;99431.75;5083513;28;20106;-46
2022/10/27 06:52:07;;;;;;;19.50;5.95;;;;;;;18.39;66.80;99432.09;5051255;28;20028;-46
2022/10/27 06:54:33;;;;;;;17.45;6.03;;;;;;;18.69;65.33;99436.41;5049983;28;20093;-46
2022/10/27 06:56:58;;;;;;;20.70;5.60;;;;;;;18.82;64.42;99441.50;5051144;28;20078;-46
2022/10/27 06:59:24;;;;;;;16.20;5.78;;;;;;;18.93;63.64;99442.50;5049872;28;20094;-46
2022/10/27 07:01:50;;;;;;;18.08;6.00;;;;;;;18.92;63.78;99447.03;5051198;28;20526;-46
2022/10/27 07:04:15;;;;;;;25.92;6.80;;;;;;;18.99;63.49;99438.09;5083403;28;20029;-46
2022/10/27 07:06:41;;;;;;;17.63;6.70;;;;;;;19.04;63.44;99462.16;5050059;28;20040;-46
2022/10/27 07:09:06;;;;;;;16.58;6.03;;;;;;;19.16;62.55;99453.06;5051816;28;20021;-46
2022/10/27 07:11:32;;;;;;;20.40;7.05;;;;;;;19.18;62.71;99452.84;5055081;28;20391;-46
2022/10/27 07:13:58;;;;;;;25.77;6.05;;;;;;;19.28;62.05;99466.31;5054515;28;20517;-46
2022/10/27 07:16:23;;;;;;;18.15;5.80;;;;;;;19.41;61.84;99467.09;5054728;28;20098;-46
2022/10/27 07:18:49;;;;;;;22.27;6.00;;;;;;;19.74;60.77;99474.34;5053492;28;20020;-46
2022/10/27 07:21:15;;;;;;;25.52;5.55;;;;;;;19.81;60.24;99487.50;5054623;28;20032;-46
2022/10/27 07:23:41;;;;;;;29.70;5.45;;;;;;;19.76;60.47;99488.25;5054617;28;20076;-46
2022/10/27 07:26:06;;;;;;;25.88;5.90;;;;;;;19.64;60.78;99488.28;5086870;28;20037;-46
2022/10/27 07:28:32;;;;;;;35.97;7.13;;;;;;;19.56;61.13;99483.34;5054488;28;20025;-46
2022/10/27 07:30:58;;;;;;;20.80;5.90;;;;;;;19.48;61.22;99473.88;5054435;28;20487;-46
2022/10/27 07:33:24;;;;;;;28.85;6.85;;;;;;;19.40;62.10;99470.78;5086705;28;20048;-46
2022/10/27 07:35:51;;;;;;;33.70;6.85;;;;;;;19.48;62.07;99463.22;5052944;28;20033;-46
2022/10/27 07:38:19;;;;;;;18.17;5.95;;;;;;;19.50;61.81;99460.34;5054345;28;20099;-46
2022/10/27 07:40:45;;;;;;;14.57;5.40;;;;;;;19.60;61.91;99457.00;5054290;28;20033;-46
2022/10/27 07:43:11;;;;;;;36.95;7.90;;;;;;;19.87;62.03;99460.69;5054229;28;20032;-46
2022/10/27 07:45:38;;;;;;;27.30;6.80;;;;;;;20.68;60.06;99472.81;5086395;28;20025;-45
2022/10/27 07:48:06;;;;;;;33.33;6.47;;;;;;;21.08;57.93;99464.50;5086651;28;20033;-46
2022/10/27 07:50:32;;;;;;;49.58;7.30;;;;;;;21.30;58.30;99459.13;5054103;28;20111;-46
2022/10/27 07:53:00;;;;;;;44.67;7.32;;;;;;;21.94;56.39;99453.03;5054073;28;20048;-46
2022/10/27 07:55:27;;;;;;;63.83;7.97;;;;;;;22.34;54.54;99448.25;5053907;28;20491;-46
2022/10/27 07:58:09;;;;;;;51.83;7.30;;;;;;;22.34;55.04;99461.63;5053950;28;20490;-46
2022/10/27 08:00:37;;;;;;;55.60;7.57;;;;;;;22.34;55.19;99461.63;5054224;28;20399;-46
2022/10/27 08:03:05;;;;;;;33.83;5.93;;;;;;;22.17;55.93;99458.25;5052629;28;20021;-46
2022/10/27 08:05:35;;;;;;;28.50;6.22;;;;;;;22.29;56.02;99466.91;5053792;28;20441;-46
2022/10/27 08:08:03;;;;;;;22.45;5.80;;;;;;;22.61;55.35;99466.81;5053793;28;20029;-46
2022/10/27 08:10:31;;;;;;;27.00;7.55;;;;;;;22.92;54.54;99465.09;5053744;28;20033;-47
2022/10/27 08:12:56;;;;;;;39.25;8.45;;;;;;;22.93;55.00;99466.69;5052407;28;20029;-46
2022/10/27 08:15:22;;;;;;;33.17;7.40;;;;;;;23.12;54.26;99467.06;5053413;28;20114;-46
2022/10/27 08:17:53;;;;;;;29.85;7.38;;;;;;;23.31;54.09;99470.03;5052198;28;20021;-46
2022/10/27 08:20:20;;;;;;;31.40;7.25;;;;;;;24.08;52.77;99478.13;5052162;28;20025;-46
2022/10/27 08:22:46;;;;;;;40.53;7.97;;;;;;;24.59;51.61;99479.97;5052220;28;20092;-46
2022/10/27 08:25:11;;;;;;;56.25;8.00;;;;;;;25.30;50.73;99478.06;5053444;28;20017;-46
2022/10/27 08:27:37;;;;;;;36.13;7.22;;;;;;;26.49;48.52;99476.00;5053388;28;20100;-46
2022/10/27 08:30:03;;;;;;;44.70;7.25;;;;;;;27.49;46.20;99479.59;5085611;28;20029;-46
2022/10/27 08:32:29;;;;;;;21.85;7.65;;;;;;;28.12;43.74;99474.81;5085677;28;20029;-47
2022/10/27 08:34:54;;;;;;;45.40;7.68;;;;;;;28.34;43.29;99476.03;5053383;28;20071;-47
2022/10/27 08:37:20;;;;;;;38.10;10.40;;;;;;;28.08;43.50;99473.78;5053089;28;20060;-47
2022/10/27 08:39:46;;;;;;;27.50;6.47;;;;;;;28.06;43.92;99481.38;5053164;28;20441;-47
2022/10/27 08:42:17;;;;;;;40.92;8.43;;;;;;;28.00;43.96;99480.69;5053098;28;20071;-47
2022/10/27 08:44:58;;;;;;;27.40;6.93;;;;;;;27.80;44.21;99478.28;5053096;28;20041;-47
2022/10/27 08:47:25;;;;;;;24.27;6.10;;;;;;;28.04;43.38;99476.28;5053050;28;20052;-47
2022/10/27 08:50:06;;;;;;;24.15;5.85;;;;;;;27.86;43.56;99485.22;5051617;28;20079;-46
2022/10/27 08:52:43;;;;;;;18.92;6.53;;;;;;;28.16;43.11;99486.59;5085303;28;20084;-46
2022/10/27 08:55:12;;;;;;;22.15;6.03;;;;;;;28.43;41.96;99485.03;5052880;28;20025;-47
2022/10/27 08:57:41;;;;;;;19.50;6.18;;;;;;;28.27;42.98;99484.50;5052752;28;20028;-46
2022/10/27 09:00:13;;;;;;;19.05;5.97;;;;;;;28.53;42.99;99484.84;5052741;28;20024;-47
2022/10/27 09:02:51;;;;;;;21.52;6.18;;;;;;;28.60;42.16;99490.66;5051446;28;20056;-47
2022/10/27 09:05:38;;;;;;;18.23;6.97;;;;;;;29.10;41.85;99495.34;5052724;28;20039;-47
2022/10/27 09:08:45;;;;;;;22.08;5.65;;;;;;;29.48;40.71;99492.34;5052615;28;20027;-47
2022/10/27 09:11:53;;;;;;;28.45;6.32;;;;;;;30.16;39.55;99482.28;5052595;28;20041;-47
2022/10/27 09:14:30;;;;;;;20.63;5.95;;;;;;;30.35;39.23;99490.22;5084686;28;20140;-47
2022/10/27 09:17:03;;;;;;;25.17;7.45;;;;;;;30.87;38.29;99489.59;5052438;28;20021;-47
2022/10/27 09:19:37;;;;;;;16.52;5.88;;;;;;;31.35;36.99;99490.59;5051219;28;20451;-47
2022/10/27 09:22:09;;;;;;;21.48;8.10;;;;;;;31.51;36.45;99504.50;5052311;28;20045;-47
2022/10/27 09:24:37;;;;;;;19.17;7.15;;;;;;;31.77;36.13;99505.28;5084718;28;20120;-47
2022/10/27 09:27:04;;;;;;;27.10;12.48;;;;;;;31.95;35.36;99500.63;5050856;28;20039;-47
2022/10/27 09:29:35;;;;;;;20.15;6.72;;;;;;;32.10;35.79;99504.00;5052165;28;20025;-47
2022/10/27 09:32:33;;;;;;;27.33;8.63;;;;;;;32.65;34.86;99503.13;5051741;28;20039;-47
2022/10/27 09:35:11;;;;;;;28.67;7.20;;;;;;;33.64;34.12;99501.84;5046283;28;20091;-47
2022/10/27 09:37:40;;;;;;;13.50;5.80;;;;;;;34.28;32.65;99497.81;5052365;28;20099;-47
2022/10/27 09:40:18;;;;;;;13.27;5.53;;;;;;;34.25;31.73;99501.22;5051941;28;20021;-47
2022/10/27 09:42:45;;;;;;;17.10;6.65;;;;;;;34.44;30.88;99510.78;5052084;28;20037;-47
2022/10/27 09:45:17;;;;;;;17.95;6.20;;;;;;;33.95;31.55;99504.09;5050765;28;20292;-47
2022/10/27 09:47:47;;;;;;;15.05;4.90;;;;;;;33.45;31.65;99507.75;5051996;28;20033;-47
2022/10/27 09:50:20;;;;;;;20.52;5.72;;;;;;;33.16;32.32;99500.44;5051942;28;20021;-47
2022/10/27 09:52:47;;;;;;;39.38;11.05;;;;;;;33.02;32.60;99496.06;5050787;28;20029;-47
2022/10/27 09:55:14;;;;;;;16.20;8.65;;;;;;;33.03;32.93;99499.56;5051807;28;20080;-47
2022/10/27 09:57:42;;;;;;;21.98;6.63;;;;;;;32.44;33.30;99501.13;5050475;28;20028;-47
2022/10/27 10:00:24;;;;;;;16.08;6.57;;;;;;;32.36;33.93;99496.53;5051854;28;20021;-47
2022/10/27 10:03:04;;;;;;;17.08;6.90;;;;;;;32.27;33.70;99492.25;5050517;28;20043;-47
2022/10/27 10:05:34;;;;;;;16.60;7.63;;;;;;;31.71;34.35;99500.34;5052384;28;20513;-47
2022/10/27 10:08:18;;;;;;;20.80;6.45;;;;;;;31.77;35.11;99504.50;5052030;28;20429;-47
2022/10/27 10:11:00;;;;;;;27.52;5.72;;;;;;;31.77;34.48;99505.28;5051629;28;20048;-47
2022/10/27 10:13:32;;;;;;;26.42;9.48;;;;;;;31.72;35.11;99504.69;5051690;28;20035;-47
2022/10/27 10:16:14;;;;;;;15.85;5.78;;;;;;;31.54;34.73;99517.47;5083662;28;20044;-47
2022/10/27 10:18:42;;;;;;;21.63;5.32;;;;;;;31.64;35.45;99506.28;5051710;28;20116;-47
2022/10/27 10:21:10;;;;;;;27.25;5.90;;;;;;;31.62;34.29;99501.16;5050438;28;20102;-47
2022/10/27 10:23:50;;;;;;;46.88;8.13;;;;;;;31.16;35.28;99504.47;5050663;28;20438;-47
2022/10/27 10:26:21;;;;;;;17.60;6.47;;;;;;;30.97;35.84;99502.03;5051558;28;20384;-47
2022/10/27 10:28:51;;;;;;;14.27;5.28;;;;;;;30.84;36.24;99504.53;5051429;28;20057;-47
2022/10/27 10:31:24;;;;;;;15.30;4.97;;;;;;;30.55;36.63;99501.63;5051443;28;20083;-47
2022/10/27 10:33:50;;;;;;;16.60;5.00;;;;;;;30.34;36.66;99510.28;5051526;28;20057;-47
2022/10/27 10:36:23;;;;;;;20.02;5.30;;;;;;;29.79;37.68;99505.16;5051336;28;20398;-47
2022/10/27 10:38:52;;;;;;;20.85;6.32;;;;;;;29.31;38.79;99495.69;5083660;28;20017;-47
2022/10/27 10:41:21;;;;;;;16.92;5.30;;;;;;;29.47;39.30;99504.25;5083584;28;20036;-47
2022/10/27 10:44:08;;;;;;;21.25;8.07;;;;;;;29.97;38.87;99504.16;5050190;28;20075;-47
2022/10/27 10:46:38;;;;;;;46.03;9.85;;;;;;;30.85;38.11;99499.94;5055326;28;20410;-47
2022/10/27 10:49:17;;;;;;;16.23;7.40;;;;;;;31.34;36.28;99505.28;5055230;28;20025;-47
2022/10/27 10:51:51;;;;;;;15.80;6.22;;;;;;;31.14;36.07;99507.50;5072364;28;20127;-47
2022/10/27 10:54:24;;;;;;;25.23;7.00;;;;;;;31.32;36.03;99504.81;5055188;28;20086;-47
2022/10/27 10:56:54;;;;;;;25.63;7.88;;;;;;;31.54;35.18;99506.59;5055051;28;20037;-46
2022/10/27 10:59:25;;;;;;;20.92;7.78;;;;;;;31.49;35.21;99504.81;5053836;28;20032;-47
2022/10/27 11:02:01;;;;;;;19.15;7.10;;;;;;;31.19;35.65;99506.53;5055065;28;20040;-47
2022/10/27 11:04:37;;;;;;;16.52;5.95;;;;;;;31.06;36.08;99505.59;5055029;28;20029;-47
2022/10/27 11:07:17;;;;;;;22.77;6.70;;;;;;;31.45;36.23;99503.88;5054984;28;20045;-47
2022/10/27 11:09:50;;;;;;;33.92;5.90;;;;;;;32.04;35.42;99489.78;5054972;28;20423;-47
2022/10/27 11:12:39;;;;;;;17.63;6.10;;;;;;;32.60;34.16;99495.19;5054864;28;20518;-47
2022/10/27 11:15:27;;;;;;;18.95;4.80;;;;;;;32.75;33.88;99491.09;5054534;28;20041;-47
2022/10/27 11:17:58;;;;;;;38.78;6.68;;;;;;;32.97;33.61;99501.66;5043312;28;20043;-47
2022/10/27 11:20:34;;;;;;;24.80;6.05;;;;;;;32.73;34.14;99494.13;5054696;28;20052;-47
2022/10/27 11:23:13;;;;;;;19.17;4.90;;;;;;;32.52;33.89;99490.53;5054689;28;20020;-47
2022/10/27 11:25:39;;;;;;;21.67;6.13;;;;;;;32.61;34.62;99488.63;5054666;28;20089;-47
2022/10/27 11:28:20;;;;;;;24.65;7.80;;;;;;;32.63;33.68;99489.09;5053197;28;20090;-47
2022/10/27 11:31:20;;;;;;;19.50;6.10;;;;;;;32.60;33.61;99487.81;5054496;28;20029;-47
2022/10/27 11:34:25;;;;;;;19.30;6.72;;;;;;;32.34;33.35;99487.13;5086732;28;20033;-47
2022/10/27 11:36:57;;;;;;;30.80;9.18;;;;;;;32.18;34.27;99468.66;5050415;28;20041;-47
2022/10/27 11:39:27;;;;;;;21.15;5.60;;;;;;;32.25;34.19;99479.00;5054425;28;20120;-47